sensor_id;sensor_type;location;lat;lon;timestamp;pressure;altitude;pressure_sealevel;temperature;humidity
17950;BME280;9100;48.700;9.316;2023-04-06T00:00:13;97997.2;;;4.77;73.896
17950;BME280;9100;48.700;9.316;2023-04-06T00:01:13;97996.6;;;4.75;74.176
17950;BME280;9100;48.700;9.316;2023-04-06T00:02:12;97998.6;;;4.72;74.452
17950;BME280;9100;48.700;9.316;2023-04-06T00:02:48;97995.5;;;4.68;74.688
17950;BME280;9100;48.700;9.316;2023-04-06T00:03:12;97997.1;;;4.69;74.856
17950;BME280;9100;48.700;9.316;2023-04-06T00:04:13;98004.7;;;4.69;75.202
17950;BME280;9100;48.700;9.316;2023-04-06T00:05:12;97993.9;;;4.67;75.472
17950;BME280;9100;48.700;9.316;2023-04-06T00:06:12;97999;;;4.67;75.775
17950;BME280;9100;48.700;9.316;2023-04-06T00:07:13;97996.7;;;4.64;76.129
17950;BME280;9100;48.700;9.316;2023-04-06T00:07:48;98002.70000000001;;;4.63;76.324
17950;BME280;9100;48.700;9.316;2023-04-06T00:08:12;97990;;;4.63;76.461
17950;BME280;9100;48.700;9.316;2023-04-06T00:09:12;97996.2;;;4.61;76.846
17950;BME280;9100;48.700;9.316;2023-04-06T00:10:12;98001.2;;;4.61;77.149
17950;BME280;9100;48.700;9.316;2023-04-06T00:11:12;98005.8;;;4.57;77.289
17950;BME280;9100;48.700;9.316;2023-04-06T00:12:12;98005.1;;;4.55;77.453
17950;BME280;9100;48.700;9.316;2023-04-06T00:12:48;98004.4;;;4.53;77.597
17950;BME280;9100;48.700;9.316;2023-04-06T00:13:13;97997.79999999999;;;4.52;77.71
17950;BME280;9100;48.700;9.316;2023-04-06T00:14:13;97999.59999999999;;;4.5;78.021
17950;BME280;9100;48.700;9.316;2023-04-06T00:15:13;97999.8;;;4.49;78.259
17950;BME280;9100;48.700;9.316;2023-04-06T00:16:13;97999.1;;;4.47;78.686
17950;BME280;9100;48.700;9.316;2023-04-06T00:17:13;97992.7;;;4.43;78.961
17950;BME280;9100;48.700;9.316;2023-04-06T00:17:48;97993.7;;;4.4;79.134
17950;BME280;9100;48.700;9.316;2023-04-06T00:18:13;97993.7;;;4.4;79.238
17950;BME280;9100;48.700;9.316;2023-04-06T00:19:13;97997.5;;;4.36;79.808
17950;BME280;9100;48.700;9.316;2023-04-06T00:20:13;97989.20000000001;;;4.34;80.098
17950;BME280;9100;48.700;9.316;2023-04-06T00:21:13;97988.7;;;4.3;80.501
17950;BME280;9100;48.700;9.316;2023-04-06T00:22:13;97992.9;;;4.3;80.887
17950;BME280;9100;48.700;9.316;2023-04-06T00:22:48;97988.8;;;4.29;80.989
17950;BME280;9100;48.700;9.316;2023-04-06T00:23:13;97991.3;;;4.29;81.137
17950;BME280;9100;48.700;9.316;2023-04-06T00:24:13;97989.8;;;4.28;81.334
17950;BME280;9100;48.700;9.316;2023-04-06T00:25:12;97984.79999999999;;;4.26;81.729
17950;BME280;9100;48.700;9.316;2023-04-06T00:26:12;97990;;;4.25;82.114
17950;BME280;9100;48.700;9.316;2023-04-06T00:27:13;97988.4;;;4.24;82.385
17950;BME280;9100;48.700;9.316;2023-04-06T00:27:48;97986.8;;;4.23;82.487
17950;BME280;9100;48.700;9.316;2023-04-06T00:28:13;97987.59999999999;;;4.23;82.561
17950;BME280;9100;48.700;9.316;2023-04-06T00:29:13;97986;;;4.22;82.904
17950;BME280;9100;48.700;9.316;2023-04-06T00:30:13;97979.3;;;4.21;83.018
17950;BME280;9100;48.700;9.316;2023-04-06T00:31:12;97924.3;;;3.85;83.126
17950;BME280;9100;48.700;9.316;2023-04-06T00:32:12;97986.8;;;4.23;83.231
17950;BME280;9100;48.700;9.316;2023-04-06T00:32:48;97984.3;;;4.23;83.273
17950;BME280;9100;48.700;9.316;2023-04-06T00:33:13;97985.1;;;4.23;83.294
17950;BME280;9100;48.700;9.316;2023-04-06T00:34:13;97988.3;;;4.25;83.329
17950;BME280;9100;48.700;9.316;2023-04-06T00:35:13;97986.7;;;4.24;83.548
17950;BME280;9100;48.700;9.316;2023-04-06T00:36:12;97981.7;;;4.23;83.703
17950;BME280;9100;48.700;9.316;2023-04-06T00:37:12;97982;;;4.2;83.948
17950;BME280;9100;48.700;9.316;2023-04-06T00:37:48;97977.9;;;4.19;84.146
17950;BME280;9100;48.700;9.316;2023-04-06T00:38:13;97977.9;;;4.19;84.271
17950;BME280;9100;48.700;9.316;2023-04-06T00:39:12;97980.3;;;4.2;84.556
17950;BME280;9100;48.700;9.316;2023-04-06T00:40:13;97979.5;;;4.2;84.901
17950;BME280;9100;48.700;9.316;2023-04-06T00:41:13;97980.4;;;4.19;85.12
17950;BME280;9100;48.700;9.316;2023-04-06T00:42:13;97974.7;;;4.17;85.356
17950;BME280;9100;48.700;9.316;2023-04-06T00:42:48;97984;;;4.16;85.522
17950;BME280;9100;48.700;9.316;2023-04-06T00:43:13;97978.8;;;4.18;85.548
17950;BME280;9100;48.700;9.316;2023-04-06T00:44:12;97978.09999999999;;;4.16;85.971
17950;BME280;9100;48.700;9.316;2023-04-06T00:45:13;97981.6;;;4.15;86.349
17950;BME280;9100;48.700;9.316;2023-04-06T00:46:13;97980.8;;;4.14;86.65
17950;BME280;9100;48.700;9.316;2023-04-06T00:47:13;97984.40000000001;;;4.12;86.906
17950;BME280;9100;48.700;9.316;2023-04-06T00:47:48;97983.7;;;4.1;87.038
17950;BME280;9100;48.700;9.316;2023-04-06T00:48:12;97974.5;;;4.09;87.248
17950;BME280;9100;48.700;9.316;2023-04-06T00:49:12;97977.9;;;4.09;87.677
17950;BME280;9100;48.700;9.316;2023-04-06T00:50:13;97973.8;;;4.07;88.101
17950;BME280;9100;48.700;9.316;2023-04-06T00:51:13;97976.59999999999;;;4.04;88.565
17950;BME280;9100;48.700;9.316;2023-04-06T00:52:12;97981.2;;;4;88.885
17950;BME280;9100;48.700;9.316;2023-04-06T00:52:48;97972.90000000001;;;3.98;88.922
17950;BME280;9100;48.700;9.316;2023-04-06T00:53:12;97975.59999999999;;;3.97;89.022
17950;BME280;9100;48.700;9.316;2023-04-06T00:54:13;97977.4;;;3.95;89.278
17950;BME280;9100;48.700;9.316;2023-04-06T00:55:13;97970.8;;;3.94;89.415
17950;BME280;9100;48.700;9.316;2023-04-06T00:56:12;97972.5;;;3.93;89.643
17950;BME280;9100;48.700;9.316;2023-04-06T00:57:13;97974.90000000001;;;3.95;89.823
17950;BME280;9100;48.700;9.316;2023-04-06T00:57:48;97970.8;;;3.94;89.948
17950;BME280;9100;48.700;9.316;2023-04-06T00:58:12;97970.8;;;3.94;90.074
17950;BME280;9100;48.700;9.316;2023-04-06T00:59:12;97977.4;;;3.95;90.105
17950;BME280;9100;48.700;9.316;2023-04-06T01:00:13;97977.3;;;3.96;90.153
17950;BME280;9100;48.700;9.316;2023-04-06T01:01:12;97972.29999999999;;;3.95;90.012
17950;BME280;9100;48.700;9.316;2023-04-06T01:02:12;97972.29999999999;;;3.95;90.085
17950;BME280;9100;48.700;9.316;2023-04-06T01:02:48;97968.2;;;3.94;90.137
17950;BME280;9100;48.700;9.316;2023-04-06T01:03:13;97973.90000000001;;;3.96;90.089
17950;BME280;9100;48.700;9.316;2023-04-06T01:04:13;97976.4;;;3.97;90.3
17950;BME280;9100;48.700;9.316;2023-04-06T01:05:12;97967.2;;;3.96;90.122
17950;BME280;9100;48.700;9.316;2023-04-06T01:06:12;97971.7;;;3.93;89.442
17950;BME280;9100;48.700;9.316;2023-04-06T01:07:12;97972.90000000001;;;3.88;89.183
17950;BME280;9100;48.700;9.316;2023-04-06T01:07:48;97971.3;;;3.87;89.183
17950;BME280;9100;48.700;9.316;2023-04-06T01:08:12;97968.7;;;3.87;89.193
17950;BME280;9100;48.700;9.316;2023-04-06T01:09:12;97968.1;;;3.85;89.021
17950;BME280;9100;48.700;9.316;2023-04-06T01:10:22;97967.3;;;3.85;88.946
17950;BME280;9100;48.700;9.316;2023-04-06T01:11:12;97966.6;;;3.83;88.932
17950;BME280;9100;48.700;9.316;2023-04-06T01:12:13;97967.6;;;3.8;88.978
17950;BME280;9100;48.700;9.316;2023-04-06T01:12:48;97963.5;;;3.79;89.06
17950;BME280;9100;48.700;9.316;2023-04-06T01:13:13;97967.8;;;3.79;88.976
17950;BME280;9100;48.700;9.316;2023-04-06T01:14:13;97963;;;3.76;88.937
17950;BME280;9100;48.700;9.316;2023-04-06T01:15:13;97966.6;;;3.73;88.94
17950;BME280;9100;48.700;9.316;2023-04-06T01:16:13;97959.2;;;3.7;88.989
17950;BME280;9100;48.700;9.316;2023-04-06T01:17:12;97956;;;3.68;89.152
17950;BME280;9100;48.700;9.316;2023-04-06T01:17:48;97961.1;;;3.68;89.31
17950;BME280;9100;48.700;9.316;2023-04-06T01:18:12;97962.90000000001;;;3.66;89.347
17950;BME280;9100;48.700;9.316;2023-04-06T01:19:13;97960.5;;;3.65;89.511
17950;BME280;9100;48.700;9.316;2023-04-06T01:20:12;97960.7;;;3.63;89.904
17950;BME280;9100;48.700;9.316;2023-04-06T01:21:12;97961.6;;;3.62;90.027
17950;BME280;9100;48.700;9.316;2023-04-06T01:22:14;97958.4;;;3.6;90.19
17950;BME280;9100;48.700;9.316;2023-04-06T01:22:48;97951.70000000001;;;3.59;90.356
17950;BME280;9100;48.700;9.316;2023-04-06T01:23:12;97959.3;;;3.59;90.513
17950;BME280;9100;48.700;9.316;2023-04-06T01:24:13;97958;;;3.55;91.018
17950;BME280;9100;48.700;9.316;2023-04-06T01:25:13;97958.90000000001;;;3.54;91.434
17950;BME280;9100;48.700;9.316;2023-04-06T01:26:13;97954.8;;;3.53;91.829
17950;BME280;9100;48.700;9.316;2023-04-06T01:27:13;97956.6;;;3.51;92.474
17950;BME280;9100;48.700;9.316;2023-04-06T01:27:48;97957.7;;;3.49;92.959
17950;BME280;9100;48.700;9.316;2023-04-06T01:28:12;97958.6;;;3.48;93.28
17950;BME280;9100;48.700;9.316;2023-04-06T01:29:13;97952.9;;;3.46;93.8
17950;BME280;9100;48.700;9.316;2023-04-06T01:30:13;97956.5;;;3.43;94.192
17950;BME280;9100;48.700;9.316;2023-04-06T01:31:12;97954.1;;;3.41;94.533
17950;BME280;9100;48.700;9.316;2023-04-06T01:32:13;97957.5;;;3.4;94.866
17950;BME280;9100;48.700;9.316;2023-04-06T01:32:48;97952.59999999999;;;3.39;94.966
17950;BME280;9100;48.700;9.316;2023-04-06T01:33:12;97959.2;;;3.4;95.114
17950;BME280;9100;48.700;9.316;2023-04-06T01:34:13;97953.5;;;3.38;95.361
17950;BME280;9100;48.700;9.316;2023-04-06T01:35:13;97950;;;3.39;95.499
17950;BME280;9100;48.700;9.316;2023-04-06T01:36:13;97955.1;;;3.39;95.646
17950;BME280;9100;48.700;9.316;2023-04-06T01:37:12;97947.79999999999;;;3.36;95.723
17950;BME280;9100;48.700;9.316;2023-04-06T01:37:48;97955.4;;;3.36;95.649
17950;BME280;9100;48.700;9.316;2023-04-06T01:38:12;97955.4;;;3.36;95.681
17950;BME280;9100;48.700;9.316;2023-04-06T01:39:13;97958;;;3.34;95.772
17950;BME280;9100;48.700;9.316;2023-04-06T01:40:12;97952.8;;;3.36;95.89
17950;BME280;9100;48.700;9.316;2023-04-06T01:41:12;97952;;;3.35;96.078
17950;BME280;9100;48.700;9.316;2023-04-06T01:42:13;97953;;;3.34;96.338
17950;BME280;9100;48.700;9.316;2023-04-06T01:42:48;97948.7;;;3.35;96.39
17950;BME280;9100;48.700;9.316;2023-04-06T01:43:13;97949.59999999999;;;3.34;96.439
17950;BME280;9100;48.700;9.316;2023-04-06T01:44:15;97943.8;;;3.33;96.45
17950;BME280;9100;48.700;9.316;2023-04-06T01:45:13;97953.8;;;3.35;96.452
17950;BME280;9100;48.700;9.316;2023-04-06T01:46:13;97947.1;;;3.34;96.534
17950;BME280;9100;48.700;9.316;2023-04-06T01:47:13;97949;;;3.32;96.613
17950;BME280;9100;48.700;9.316;2023-04-06T01:47:48;97951.59999999999;;;3.3;96.745
17950;BME280;9100;48.700;9.316;2023-04-06T01:48:12;97955.1;;;3.29;96.828
17950;BME280;9100;48.700;9.316;2023-04-06T01:49:13;97944.2;;;3.29;96.92
17950;BME280;9100;48.700;9.316;2023-04-06T01:50:13;97954.3;;;3.29;97.077
17950;BME280;9100;48.700;9.316;2023-04-06T01:51:13;97949.5;;;3.26;96.966
17950;BME280;9100;48.700;9.316;2023-04-06T01:52:13;97945.5;;;3.23;97.105
17950;BME280;9100;48.700;9.316;2023-04-06T01:52:48;97941.3;;;3.22;97.208
17950;BME280;9100;48.700;9.316;2023-04-06T01:53:13;97945.5;;;3.23;97.346
17950;BME280;9100;48.700;9.316;2023-04-06T01:54:12;97949.7;;;3.23;97.555
17950;BME280;9100;48.700;9.316;2023-04-06T01:55:12;97933.8;;;3.22;97.73
17950;BME280;9100;48.700;9.316;2023-04-06T01:56:13;97940.4;;;3.23;97.9
17950;BME280;9100;48.700;9.316;2023-04-06T01:57:13;97942.3;;;3.21;97.843
17950;BME280;9100;48.700;9.316;2023-04-06T01:57:48;97940.8;;;3.19;98.163
17950;BME280;9100;48.700;9.316;2023-04-06T01:58:13;97950;;;3.2;98.257
17950;BME280;9100;48.700;9.316;2023-04-06T01:59:13;97951.59999999999;;;3.21;98.429
17950;BME280;9100;48.700;9.316;2023-04-06T02:00:13;97942.3;;;3.21;98.564
17950;BME280;9100;48.700;9.316;2023-04-06T02:01:12;97945.6;;;3.22;98.744
17950;BME280;9100;48.700;9.316;2023-04-06T02:02:13;97939.9;;;3.2;98.801
17950;BME280;9100;48.700;9.316;2023-04-06T02:02:48;97936.7;;;3.18;98.88
17950;BME280;9100;48.700;9.316;2023-04-06T02:03:13;97936.7;;;3.18;98.911
17950;BME280;9100;48.700;9.316;2023-04-06T02:04:13;97943.6;;;3.16;99.104
17950;BME280;9100;48.700;9.316;2023-04-06T02:05:13;97942.8;;;3.15;99.304
17950;BME280;9100;48.700;9.316;2023-04-06T02:06:12;97949.7;;;3.13;99.435
17950;BME280;9100;48.700;9.316;2023-04-06T02:07:12;97939.5;;;3.13;99.696
17950;BME280;9100;48.700;9.316;2023-04-06T02:07:48;97943.8;;;3.13;99.748
17950;BME280;9100;48.700;9.316;2023-04-06T02:08:13;97942.2;;;3.12;99.849
17950;BME280;9100;48.700;9.316;2023-04-06T02:09:13;97943.8;;;3.13;100
17950;BME280;9100;48.700;9.316;2023-04-06T02:10:13;97940.59999999999;;;3.11;100
17950;BME280;9100;48.700;9.316;2023-04-06T02:11:13;97939.9;;;3.09;100
17950;BME280;9100;48.700;9.316;2023-04-06T02:12:12;97945.2;;;3.06;100
17950;BME280;9100;48.700;9.316;2023-04-06T02:12:48;97941.09999999999;;;3.05;100
17950;BME280;9100;48.700;9.316;2023-04-06T02:13:12;97942;;;3.04;100
17950;BME280;9100;48.700;9.316;2023-04-06T02:14:12;97942;;;3.04;100
17950;BME280;9100;48.700;9.316;2023-04-06T02:15:12;97939.59999999999;;;3.02;100
17950;BME280;9100;48.700;9.316;2023-04-06T02:16:12;97943.1;;;3.01;100
17950;BME280;9100;48.700;9.316;2023-04-06T02:17:12;97936.5;;;2.99;100
17950;BME280;9100;48.700;9.316;2023-04-06T02:17:48;97938.4;;;2.97;100
17950;BME280;9100;48.700;9.316;2023-04-06T02:18:12;97939.20000000001;;;2.97;100
17950;BME280;9100;48.700;9.316;2023-04-06T02:19:13;97940;;;2.98;100
17950;BME280;9100;48.700;9.316;2023-04-06T02:20:12;97940;;;2.98;100
17950;BME280;9100;48.700;9.316;2023-04-06T02:21:13;97940.7;;;3;100
17950;BME280;9100;48.700;9.316;2023-04-06T02:22:13;97943.2;;;3;100
17950;BME280;9100;48.700;9.316;2023-04-06T02:22:48;97933.2;;;2.98;100
17950;BME280;9100;48.700;9.316;2023-04-06T02:23:13;97945.7;;;3;100
17950;BME280;9100;48.700;9.316;2023-04-06T02:24:13;97942.4;;;2.99;100
17950;BME280;9100;48.700;9.316;2023-04-06T02:25:12;97941.6;;;2.99;100
17950;BME280;9100;48.700;9.316;2023-04-06T02:26:12;97937.5;;;2.98;100
17950;BME280;9100;48.700;9.316;2023-04-06T02:27:13;97940.09999999999;;;2.96;100
17950;BME280;9100;48.700;9.316;2023-04-06T02:27:48;97941.2;;;2.93;100
17950;BME280;9100;48.700;9.316;2023-04-06T02:28:12;97941;;;2.95;100
17950;BME280;9100;48.700;9.316;2023-04-06T02:29:13;97943.7;;;2.93;100
17950;BME280;9100;48.700;9.316;2023-04-06T02:30:13;97934.6;;;2.91;100
17950;BME280;9100;48.700;9.316;2023-04-06T02:31:12;97935.7;;;2.88;100
17950;BME280;9100;48.700;9.316;2023-04-06T02:32:12;97929.3;;;2.84;100
17950;BME280;9100;48.700;9.316;2023-04-06T02:32:48;97927.70000000001;;;2.83;100
17950;BME280;9100;48.700;9.316;2023-04-06T02:33:12;97933.7;;;2.82;100
17950;BME280;9100;48.700;9.316;2023-04-06T02:34:13;97933;;;2.8;100
17950;BME280;9100;48.700;9.316;2023-04-06T02:35:13;97934;;;2.78;100
17950;BME280;9100;48.700;9.316;2023-04-06T02:36:13;97933.3;;;2.76;100
17950;BME280;9100;48.700;9.316;2023-04-06T02:37:13;97928.4;;;2.74;100
17950;BME280;9100;48.700;9.316;2023-04-06T02:37:48;97931.1;;;2.73;100
17950;BME280;9100;48.700;9.316;2023-04-06T02:38:13;97931.9;;;2.73;100
17950;BME280;9100;48.700;9.316;2023-04-06T02:39:13;97927.59999999999;;;2.74;100
17950;BME280;9100;48.700;9.316;2023-04-06T02:40:13;97926.8;;;2.73;100
17950;BME280;9100;48.700;9.316;2023-04-06T02:41:12;97926.8;;;2.73;100
17950;BME280;9100;48.700;9.316;2023-04-06T02:42:12;97933.6;;;2.73;100
17950;BME280;9100;48.700;9.316;2023-04-06T02:42:48;97927.9;;;2.71;100
17950;BME280;9100;48.700;9.316;2023-04-06T02:43:12;97928.7;;;2.71;100
17950;BME280;9100;48.700;9.316;2023-04-06T02:44:12;97926.9;;;2.72;100
17950;BME280;9100;48.700;9.316;2023-04-06T02:45:12;97932.9;;;2.71;100
17950;BME280;9100;48.700;9.316;2023-04-06T02:46:13;97921.2;;;2.7;100
17950;BME280;9100;48.700;9.316;2023-04-06T02:47:13;97934;;;2.68;100
17950;BME280;9100;48.700;9.316;2023-04-06T02:47:48;97930;;;2.66;100
17950;BME280;9100;48.700;9.316;2023-04-06T02:48:13;97937.40000000001;;;2.67;100
17950;BME280;9100;48.700;9.316;2023-04-06T02:49:13;97935.2;;;2.64;100
17950;BME280;9100;48.700;9.316;2023-04-06T02:50:13;97931;;;2.63;100
17950;BME280;9100;48.700;9.316;2023-04-06T02:51:13;97930.2;;;2.63;100
17950;BME280;9100;48.700;9.316;2023-04-06T02:52:13;97927.8;;;2.61;100
17950;BME280;9100;48.700;9.316;2023-04-06T02:52:48;97927.8;;;2.61;100
17950;BME280;9100;48.700;9.316;2023-04-06T02:53:13;97929.4;;;2.62;100
17950;BME280;9100;48.700;9.316;2023-04-06T02:54:13;97922.7;;;2.61;100
17950;BME280;9100;48.700;9.316;2023-04-06T02:55:13;97925.3;;;2.61;100
17950;BME280;9100;48.700;9.316;2023-04-06T02:56:13;97926.2;;;2.6;100
17950;BME280;9100;48.700;9.316;2023-04-06T02:57:13;97927.09999999999;;;2.59;100
17950;BME280;9100;48.700;9.316;2023-04-06T02:57:48;97913.59999999999;;;2.49;100
17950;BME280;9100;48.700;9.316;2023-04-06T02:58:13;97921.40000000001;;;2.57;100
17950;BME280;9100;48.700;9.316;2023-04-06T02:59:13;97932.3;;;2.58;100
17950;BME280;9100;48.700;9.316;2023-04-06T03:00:13;97927.09999999999;;;2.59;100
17950;BME280;9100;48.700;9.316;2023-04-06T03:01:13;97931.3;;;2.6;100
17950;BME280;9100;48.700;9.316;2023-04-06T03:02:12;97923;;;2.58;100
17950;BME280;9100;48.700;9.316;2023-04-06T03:02:48;97925.5;;;2.58;100
17950;BME280;9100;48.700;9.316;2023-04-06T03:03:13;97924.7;;;2.58;100
17950;BME280;9100;48.700;9.316;2023-04-06T03:04:13;97927.09999999999;;;2.59;100
17950;BME280;9100;48.700;9.316;2023-04-06T03:05:13;97928;;;2.58;100
17950;BME280;9100;48.700;9.316;2023-04-06T03:06:13;97926.3;;;2.59;100
17950;BME280;9100;48.700;9.316;2023-04-06T03:07:12;97923;;;2.58;100
17950;BME280;9100;48.700;9.316;2023-04-06T03:07:48;97926.4;;;2.57;100
17950;BME280;9100;48.700;9.316;2023-04-06T03:08:13;97931.5;;;2.57;100
17950;BME280;9100;48.700;9.316;2023-04-06T03:09:13;97925.7;;;2.57;100
17950;BME280;9100;48.700;9.316;2023-04-06T03:10:13;97919.8;;;2.56;100
17950;BME280;9100;48.700;9.316;2023-04-06T03:11:13;97929.9;;;2.56;100
17950;BME280;9100;48.700;9.316;2023-04-06T03:12:13;97927.5;;;2.55;100
17950;BME280;9100;48.700;9.316;2023-04-06T03:12:48;97930.1;;;2.53;100
17950;BME280;9100;48.700;9.316;2023-04-06T03:13:13;97931.7;;;2.54;100
17950;BME280;9100;48.700;9.316;2023-04-06T03:14:13;97920.8;;;2.54;100
17950;BME280;9100;48.700;9.316;2023-04-06T03:15:12;97928.3;;;2.55;100
17950;BME280;9100;48.700;9.316;2023-04-06T03:16:13;97924.90000000001;;;2.56;100
17950;BME280;9100;48.700;9.316;2023-04-06T03:17:13;97919.8;;;2.56;100
17950;BME280;9100;48.700;9.316;2023-04-06T03:17:48;97923.90000000001;;;2.57;100
17950;BME280;9100;48.700;9.316;2023-04-06T03:18:13;97926.4;;;2.57;100
17950;BME280;9100;48.700;9.316;2023-04-06T03:19:13;97925.40000000001;;;2.6;100
17950;BME280;9100;48.700;9.316;2023-04-06T03:20:13;97921.2;;;2.6;100
17950;BME280;9100;48.700;9.316;2023-04-06T03:21:13;97923.7;;;2.6;99.926
17950;BME280;9100;48.700;9.316;2023-04-06T03:22:13;97922.7;;;2.61;99.709
17950;BME280;9100;48.700;9.316;2023-04-06T03:22:48;97919.4;;;2.61;99.675
17950;BME280;9100;48.700;9.316;2023-04-06T03:23:12;97926.2;;;2.6;99.707
17950;BME280;9100;48.700;9.316;2023-04-06T03:24:13;97923.7;;;2.6;99.686
17950;BME280;9100;48.700;9.316;2023-04-06T03:25:13;97872.40000000001;;;2.28;99.684
17950;BME280;9100;48.700;9.316;2023-04-06T03:26:13;97926.2;;;2.6;99.884
17950;BME280;9100;48.700;9.316;2023-04-06T03:27:13;97927.20000000001;;;2.58;100
17950;BME280;9100;48.700;9.316;2023-04-06T03:27:48;97925.7;;;2.57;100
17950;BME280;9100;48.700;9.316;2023-04-06T03:28:12;97927.4;;;2.56;100
17950;BME280;9100;48.700;9.316;2023-04-06T03:29:13;97884.1;;;2.29;100
17950;BME280;9100;48.700;9.316;2023-04-06T03:30:13;97928.3;;;2.55;100
17950;BME280;9100;48.700;9.316;2023-04-06T03:31:13;97933.3;;;2.55;100
17950;BME280;9100;48.700;9.316;2023-04-06T03:32:13;97930.1;;;2.53;100
17950;BME280;9100;48.700;9.316;2023-04-06T03:32:48;97928.5;;;2.52;100
17950;BME280;9100;48.700;9.316;2023-04-06T03:33:13;97931.1;;;2.52;100
17950;BME280;9100;48.700;9.316;2023-04-06T03:34:13;97924.40000000001;;;2.51;100
17950;BME280;9100;48.700;9.316;2023-04-06T03:35:13;97936.2;;;2.51;100
17950;BME280;9100;48.700;9.316;2023-04-06T03:36:13;97928;;;2.49;100
17950;BME280;9100;48.700;9.316;2023-04-06T03:37:13;97933;;;2.49;100
17950;BME280;9100;48.700;9.316;2023-04-06T03:37:48;97925.59999999999;;;2.47;100
17950;BME280;9100;48.700;9.316;2023-04-06T03:38:12;97930.6;;;2.47;100
17950;BME280;9100;48.700;9.316;2023-04-06T03:39:13;97933.1;;;2.47;100
17950;BME280;9100;48.700;9.316;2023-04-06T03:40:13;97935;;;2.45;100
17950;BME280;9100;48.700;9.316;2023-04-06T03:41:13;97932.7;;;2.42;100
17950;BME280;9100;48.700;9.316;2023-04-06T03:42:13;97936.3;;;2.39;100
17950;BME280;9100;48.700;9.316;2023-04-06T03:42:48;97934.79999999999;;;2.37;100
17950;BME280;9100;48.700;9.316;2023-04-06T03:43:13;97938.2;;;2.36;100
17950;BME280;9100;48.700;9.316;2023-04-06T03:44:13;97930.1;;;2.32;100
17950;BME280;9100;48.700;9.316;2023-04-06T03:45:13;97930.2;;;2.31;100
17950;BME280;9100;48.700;9.316;2023-04-06T03:46:13;97932.9;;;2.29;100
17950;BME280;9100;48.700;9.316;2023-04-06T03:47:13;97935.5;;;2.28;100
17950;BME280;9100;48.700;9.316;2023-04-06T03:47:48;97937.40000000001;;;2.26;100
17950;BME280;9100;48.700;9.316;2023-04-06T03:48:12;97934.79999999999;;;2.26;100
17950;BME280;9100;48.700;9.316;2023-04-06T03:49:13;97936.7;;;2.24;100
17950;BME280;9100;48.700;9.316;2023-04-06T03:50:13;97941;;;2.22;100
17950;BME280;9100;48.700;9.316;2023-04-06T03:51:13;97941.3;;;2.19;100
17950;BME280;9100;48.700;9.316;2023-04-06T03:52:13;97934.1;;;2.14;100
17950;BME280;9100;48.700;9.316;2023-04-06T03:52:48;97940.20000000001;;;2.12;100
17950;BME280;9100;48.700;9.316;2023-04-06T03:53:13;97939.5;;;2.1;100
17950;BME280;9100;48.700;9.316;2023-04-06T03:54:13;97940.59999999999;;;2.06;100
17950;BME280;9100;48.700;9.316;2023-04-06T03:55:12;97945.2;;;2.01;100
17950;BME280;9100;48.700;9.316;2023-04-06T03:56:12;97943.7;;;1.98;100
17950;BME280;9100;48.700;9.316;2023-04-06T03:57:13;97942.2;;;1.95;100
17950;BME280;9100;48.700;9.316;2023-04-06T03:57:48;97943.3;;;1.93;100
17950;BME280;9100;48.700;9.316;2023-04-06T03:58:13;97946;;;1.9;100
17950;BME280;9100;48.700;9.316;2023-04-06T03:59:13;97942.8;;;1.88;100
17950;BME280;9100;48.700;9.316;2023-04-06T04:00:13;97937.2;;;1.84;100
17950;BME280;9100;48.700;9.316;2023-04-06T04:01:12;97943.2;;;1.83;100
17950;BME280;9100;48.700;9.316;2023-04-06T04:02:13;97942.5;;;1.81;100
17950;BME280;9100;48.700;9.316;2023-04-06T04:02:48;97940.9;;;1.8;100
17950;BME280;9100;48.700;9.316;2023-04-06T04:03:13;97946.8;;;1.79;100
17950;BME280;9100;48.700;9.316;2023-04-06T04:04:13;97941.09999999999;;;1.77;100
17950;BME280;9100;48.700;9.316;2023-04-06T04:05:13;97941.5;;;1.73;100
17950;BME280;9100;48.700;9.316;2023-04-06T04:06:13;97945.3;;;1.67;100
17950;BME280;9100;48.700;9.316;2023-04-06T04:07:13;97943.9;;;1.63;100
17950;BME280;9100;48.700;9.316;2023-04-06T04:07:48;97944;;;1.62;100
17950;BME280;9100;48.700;9.316;2023-04-06T04:08:13;97950;;;1.61;100
17950;BME280;9100;48.700;9.316;2023-04-06T04:09:13;97939.3;;;1.57;100
17950;BME280;9100;48.700;9.316;2023-04-06T04:10:13;97950.2;;;1.58;100
17950;BME280;9100;48.700;9.316;2023-04-06T04:11:13;97946.2;;;1.55;100
17950;BME280;9100;48.700;9.316;2023-04-06T04:12:13;97953;;;1.53;100
17950;BME280;9100;48.700;9.316;2023-04-06T04:12:48;97953;;;1.53;100
17950;BME280;9100;48.700;9.316;2023-04-06T04:13:13;97952.4;;;1.51;100
17950;BME280;9100;48.700;9.316;2023-04-06T04:14:13;97949.7;;;1.53;100
17950;BME280;9100;48.700;9.316;2023-04-06T04:15:13;97955.6;;;1.53;100
17950;BME280;9100;48.700;9.316;2023-04-06T04:16:13;97954.7;;;1.54;100
17950;BME280;9100;48.700;9.316;2023-04-06T04:17:13;97954.7;;;1.54;100
17950;BME280;9100;48.700;9.316;2023-04-06T04:17:48;97957.2;;;1.54;100
17950;BME280;9100;48.700;9.316;2023-04-06T04:18:13;97956.3;;;1.55;100
17950;BME280;9100;48.700;9.316;2023-04-06T04:19:13;97961.1;;;1.58;100
17950;BME280;9100;48.700;9.316;2023-04-06T04:20:13;97956.1;;;1.57;100
17950;BME280;9100;48.700;9.316;2023-04-06T04:21:13;97959.5;;;1.57;100
17950;BME280;9100;48.700;9.316;2023-04-06T04:22:12;97959.5;;;1.57;100
17950;BME280;9100;48.700;9.316;2023-04-06T04:22:48;97961.3;;;1.55;100
17950;BME280;9100;48.700;9.316;2023-04-06T04:23:13;97960.40000000001;;;1.56;100
17950;BME280;9100;48.700;9.316;2023-04-06T04:24:13;97959.5;;;1.57;100
17950;BME280;9100;48.700;9.316;2023-04-06T04:25:13;97960.40000000001;;;1.56;100
17950;BME280;9100;48.700;9.316;2023-04-06T04:26:13;97966.4;;;1.55;100
17950;BME280;9100;48.700;9.316;2023-04-06T04:27:13;97960.5;;;1.55;100
17950;BME280;9100;48.700;9.316;2023-04-06T04:27:49;97960.5;;;1.55;100
17950;BME280;9100;48.700;9.316;2023-04-06T04:28:13;97957.2;;;1.54;100
17950;BME280;9100;48.700;9.316;2023-04-06T04:29:13;97955.6;;;1.53;100
17950;BME280;9100;48.700;9.316;2023-04-06T04:30:13;97960.6;;;1.53;100
17950;BME280;9100;48.700;9.316;2023-04-06T04:31:13;97960.6;;;1.53;100
17950;BME280;9100;48.700;9.316;2023-04-06T04:32:13;97963.9;;;1.54;100
17950;BME280;9100;48.700;9.316;2023-04-06T04:32:48;97965.7;;;1.53;100